createdAt,value
2018-02-19T00:00:35.549Z,47.33
2018-02-19T00:03:03.515Z,47.80
2018-02-19T00:05:31.042Z,43.55
2018-02-19T00:07:58.557Z,40.33
2018-02-19T00:10:26.118Z,39.35
2018-02-19T00:12:53.662Z,40.58
2018-02-19T00:15:21.239Z,46.33
2018-02-19T00:17:48.758Z,41.78
2018-02-19T00:20:16.274Z,43.63
2018-02-19T00:22:43.866Z,47.85
2018-02-19T00:25:11.414Z,43.83
2018-02-19T00:27:39.103Z,44.47
2018-02-19T00:30:06.620Z,41.67
2018-02-19T00:32:34.138Z,46.92
2018-02-19T00:35:01.711Z,41.78
2018-02-19T00:37:29.226Z,46.22
2018-02-19T00:39:56.974Z,44.95
2018-02-19T00:42:24.486Z,48.05
2018-02-19T00:44:52.010Z,47.72
2018-02-19T00:47:19.549Z,47.05
2018-02-19T00:49:47.066Z,41.70
2018-02-19T00:52:14.672Z,42.50
2018-02-19T00:54:42.191Z,46.20
2018-02-19T00:57:09.708Z,41.53
2018-02-19T00:59:37.257Z,45.50
2018-02-19T01:02:04.774Z,41.67
2018-02-19T01:04:32.338Z,47.28
2018-02-19T01:06:59.865Z,49.67
2018-02-19T01:09:27.378Z,47.03
2018-02-19T01:11:54.920Z,46.80
2018-02-19T01:14:22.431Z,52.88
2018-02-19T01:16:50.466Z,42.72
2018-02-19T01:19:17.995Z,49.35
2018-02-19T01:21:45.567Z,50.80
2018-02-19T01:24:13.143Z,48.97
2018-02-19T01:26:40.659Z,46.80
2018-02-19T01:29:08.205Z,42.80
2018-02-19T01:31:35.723Z,45.28
2018-02-19T01:34:03.239Z,50.72
2018-02-19T01:36:30.787Z,48.78
2018-02-19T01:38:58.312Z,50.17
2018-02-19T01:41:25.871Z,43.95
2018-02-19T01:43:53.397Z,46.42
2018-02-19T01:46:20.921Z,47.70
2018-02-19T01:48:48.466Z,43.30
2018-02-19T01:51:15.982Z,41.35
2018-02-19T01:53:43.533Z,41.22
2018-02-19T01:56:11.055Z,41.33
2018-02-19T01:58:38.574Z,35.67
2018-02-19T02:01:06.109Z,44.78
2018-02-19T02:03:33.623Z,38.15
2018-02-19T02:06:01.317Z,48.35
2018-02-19T02:08:28.841Z,36.40
2018-02-19T02:10:56.362Z,45.08
2018-02-19T02:13:23.923Z,41.05
2018-02-19T02:15:51.441Z,44.67
2018-02-19T02:18:19.038Z,40.40
2018-02-19T02:20:46.550Z,41.67
2018-02-19T02:23:14.071Z,46.88
2018-02-19T02:25:41.614Z,44.60
2018-02-19T02:28:09.130Z,37.10
2018-02-19T02:30:37.887Z,45.50
2018-02-19T02:33:05.407Z,35.78
2018-02-19T02:35:32.921Z,40.97
2018-02-19T02:38:00.469Z,37.17
2018-02-19T02:40:27.998Z,44.90
2018-02-19T02:42:55.733Z,47.25
2018-02-19T02:45:23.249Z,40.28
2018-02-19T02:47:50.768Z,51.60
2018-02-19T02:50:18.305Z,45.80
2018-02-19T02:52:45.834Z,48.38
2018-02-19T02:55:13.555Z,44.08
2018-02-19T02:57:41.075Z,48.95
2018-02-19T03:00:08.595Z,48.22
2018-02-19T03:02:36.138Z,41.30
2018-02-19T03:05:03.657Z,40.42
2018-02-19T03:07:31.228Z,55.25
2018-02-19T03:09:58.745Z,49.67
2018-02-19T03:12:26.334Z,46.47
2018-02-19T03:14:53.869Z,41.72
2018-02-19T03:17:21.390Z,49.10
2018-02-19T03:19:49.122Z,43.63
2018-02-19T03:22:16.639Z,40.88
2018-02-19T03:24:44.149Z,40.78
2018-02-19T03:27:11.699Z,47.30
2018-02-19T03:29:39.215Z,39.45
2018-02-19T03:32:06.921Z,43.00
2018-02-19T03:34:34.486Z,42.92
2018-02-19T03:37:02.014Z,46.95
2018-02-19T03:39:29.554Z,41.13
2018-02-19T03:41:57.074Z,44.63
2018-02-19T03:44:24.646Z,44.38
2018-02-19T03:46:52.195Z,36.60
2018-02-19T03:49:19.712Z,41.08
2018-02-19T03:51:47.258Z,40.88
2018-02-19T03:54:14.785Z,43.15
2018-02-19T03:56:42.330Z,39.65
2018-02-19T03:59:09.850Z,45.40
2018-02-19T04:01:37.366Z,55.08
2018-02-19T04:04:04.897Z,46.15
2018-02-19T04:06:32.413Z,38.90
2018-02-19T04:08:59.957Z,42.30
2018-02-19T04:11:27.470Z,44.60
2018-02-19T04:13:54.991Z,50.22
2018-02-19T04:16:22.547Z,40.60
2018-02-19T04:18:50.059Z,32.17
2018-02-19T04:21:17.677Z,40.42
2018-02-19T04:23:45.198Z,51.03
2018-02-19T04:26:12.719Z,46.35
2018-02-19T04:28:40.258Z,47.40
2018-02-19T04:31:07.780Z,41.55
2018-02-19T04:33:35.488Z,41.35
2018-02-19T04:36:03.342Z,45.67
2018-02-19T04:38:30.854Z,40.72
2018-02-19T04:40:58.394Z,43.22
2018-02-19T04:43:25.910Z,45.75
2018-02-19T04:45:53.461Z,49.97
2018-02-19T04:48:20.978Z,40.78
2018-02-19T04:50:48.503Z,43.42
2018-02-19T04:53:16.066Z,45.22
2018-02-19T04:55:43.614Z,47.33
2018-02-19T04:58:11.400Z,43.15
2018-02-19T05:00:38.917Z,45.85
2018-02-19T05:03:06.449Z,39.55
2018-02-19T05:05:34.314Z,34.65
2018-02-19T05:08:01.829Z,42.83
2018-02-19T05:10:29.374Z,36.35
2018-02-19T05:12:56.913Z,42.58
2018-02-19T05:15:24.426Z,40.25
2018-02-19T05:17:51.959Z,44.58
2018-02-19T05:20:19.479Z,38.80
2018-02-19T05:22:47.037Z,36.45
2018-02-19T05:25:14.565Z,36.40
2018-02-19T05:27:42.079Z,35.75
2018-02-19T05:30:09.617Z,34.25
2018-02-19T05:32:37.141Z,33.88
2018-02-19T05:35:04.701Z,40.97
2018-02-19T05:37:32.220Z,33.90
2018-02-19T05:39:59.754Z,37.15
2018-02-19T05:42:27.298Z,31.02
2018-02-19T05:44:54.818Z,34.95
2018-02-19T05:47:22.573Z,43.35
2018-02-19T05:49:50.998Z,26.60
2018-02-19T05:52:18.518Z,38.80
2018-02-19T05:54:46.053Z,40.58
2018-02-19T05:57:13.569Z,30.73
2018-02-19T05:59:41.151Z,34.40
2018-02-19T06:02:08.667Z,35.63
2018-02-19T06:04:36.180Z,38.30
2018-02-19T06:07:03.726Z,32.13
2018-02-19T06:09:31.247Z,44.08
2018-02-19T06:11:58.995Z,41.35
2018-02-19T06:14:26.510Z,85.35
2018-02-19T06:16:54.540Z,43.53
2018-02-19T06:19:22.082Z,44.92
2018-02-19T06:21:49.600Z,34.33
2018-02-19T06:24:17.142Z,29.75
2018-02-19T06:26:44.662Z,28.62
2018-02-19T06:29:12.188Z,34.28
2018-02-19T06:31:39.739Z,26.15
2018-02-19T06:34:07.250Z,30.95
2018-02-19T06:36:34.998Z,39.40
2018-02-19T06:39:02.517Z,66.97
2018-02-19T06:41:30.472Z,38.60
2018-02-19T06:43:58.015Z,43.25
2018-02-19T06:46:25.529Z,36.38
2018-02-19T06:48:53.244Z,69.30
2018-02-19T06:51:20.775Z,33.05
2018-02-19T06:53:48.295Z,33.85
2018-02-19T06:56:15.841Z,36.78
2018-02-19T06:58:43.363Z,54.17
2018-02-19T07:01:11.309Z,43.22
2018-02-19T07:03:38.845Z,35.20
2018-02-19T07:06:06.368Z,45.25
2018-02-19T07:08:33.915Z,44.97
2018-02-19T07:11:01.437Z,42.55
2018-02-19T07:13:28.992Z,47.83
2018-02-19T07:15:56.513Z,46.37
2018-02-19T07:18:24.039Z,57.08
2018-02-19T07:20:51.582Z,47.03
2018-02-19T07:23:19.107Z,45.35
2018-02-19T07:25:46.895Z,40.53
2018-02-19T07:28:14.410Z,37.60
2018-02-19T07:30:41.927Z,60.35
2018-02-19T07:33:09.475Z,51.80
2018-02-19T07:35:36.993Z,48.78
2018-02-19T07:38:04.795Z,39.40
2018-02-19T07:40:32.312Z,53.10
2018-02-19T07:42:59.830Z,45.15
2018-02-19T07:45:27.389Z,47.50
2018-02-19T07:47:55.074Z,60.78
2018-02-19T07:50:22.641Z,51.13
2018-02-19T07:52:50.153Z,45.03
2018-02-19T07:55:17.778Z,45.17
2018-02-19T07:57:45.330Z,50.55
2018-02-19T08:00:12.846Z,46.13
2018-02-19T08:02:40.565Z,43.50
2018-02-19T08:05:08.083Z,35.40
2018-02-19T08:07:35.599Z,41.65
2018-02-19T08:10:03.138Z,41.25
2018-02-19T08:12:30.676Z,48.72
2018-02-19T08:14:58.388Z,47.78
2018-02-19T08:17:26.470Z,40.42
2018-02-19T08:19:54.806Z,42.30
2018-02-19T08:22:22.417Z,37.15
2018-02-19T08:24:49.934Z,39.40
2018-02-19T08:27:17.748Z,30.55
2018-02-19T08:29:45.279Z,36.00
2018-02-19T08:32:12.795Z,34.97
2018-02-19T08:34:40.333Z,38.97
2018-02-19T08:37:07.858Z,35.20
2018-02-19T08:39:35.432Z,30.75
2018-02-19T08:42:02.952Z,33.88
2018-02-19T08:44:30.478Z,29.87
2018-02-19T08:46:58.034Z,32.42
2018-02-19T08:49:25.618Z,34.70
2018-02-19T08:51:53.333Z,32.47
2018-02-19T08:54:20.862Z,36.95
2018-02-19T08:56:48.758Z,115.60
2018-02-19T08:59:16.331Z,39.90
2018-02-19T09:01:43.841Z,34.17
2018-02-19T09:04:11.414Z,28.02
2018-02-19T09:06:38.934Z,33.90
2018-02-19T09:09:06.450Z,28.70
2018-02-19T09:11:33.996Z,33.65
2018-02-19T09:14:01.510Z,29.87
2018-02-19T09:16:29.057Z,31.85
2018-02-19T09:18:56.578Z,31.42
2018-02-19T09:21:24.107Z,34.60
2018-02-19T09:23:51.669Z,32.75
2018-02-19T09:26:19.674Z,30.90
2018-02-19T09:28:47.426Z,33.20
2018-02-19T09:31:14.943Z,27.33
2018-02-19T09:33:42.462Z,31.90
2018-02-19T09:36:10.040Z,29.37
2018-02-19T09:38:37.554Z,30.70
2018-02-19T09:41:05.212Z,31.85
2018-02-19T09:43:32.734Z,31.20
2018-02-19T09:46:00.258Z,34.40
2018-02-19T09:48:27.803Z,39.83
2018-02-19T09:50:55.330Z,39.25
2018-02-19T09:53:22.882Z,37.63
2018-02-19T09:55:50.704Z,41.20
2018-02-19T09:58:18.240Z,52.05
2018-02-19T10:00:45.810Z,40.20
2018-02-19T10:03:13.330Z,45.75
2018-02-19T10:05:41.369Z,43.55
2018-02-19T10:08:09.307Z,46.90
2018-02-19T10:10:36.823Z,53.63
2018-02-19T10:13:04.373Z,47.70
2018-02-19T10:15:31.892Z,41.08
2018-02-19T10:17:59.626Z,42.72
2018-02-19T10:20:27.149Z,46.35
2018-02-19T10:22:54.667Z,47.35
2018-02-19T10:25:22.212Z,48.25
2018-02-19T10:27:49.726Z,48.38
2018-02-19T10:30:17.328Z,41.60
2018-02-19T10:32:44.891Z,44.00
2018-02-19T10:35:12.397Z,48.22
2018-02-19T10:37:39.946Z,72.60
2018-02-19T10:40:07.459Z,51.22
2018-02-19T10:42:35.217Z,42.83
2018-02-19T10:45:02.737Z,45.38
2018-02-19T10:47:30.256Z,49.13
2018-02-19T10:49:57.802Z,53.70
2018-02-19T10:52:25.348Z,49.00
2018-02-19T10:54:52.901Z,43.35
2018-02-19T10:57:20.427Z,51.08
2018-02-19T10:59:47.937Z,52.60
2018-02-19T11:02:15.509Z,47.88
2018-02-19T11:04:43.042Z,39.10
2018-02-19T11:07:10.809Z,39.08
2018-02-19T11:09:38.322Z,37.25
2018-02-19T11:12:05.849Z,44.33
2018-02-19T11:14:33.406Z,41.50
2018-02-19T11:17:01.041Z,44.42
2018-02-19T11:19:28.822Z,44.03
2018-02-19T11:21:56.346Z,39.13
2018-02-19T11:24:23.869Z,49.38
2018-02-19T11:26:51.414Z,45.92
2018-02-19T11:29:18.947Z,35.90
2018-02-19T11:31:46.609Z,46.80
2018-02-19T11:34:14.124Z,47.28
2018-02-19T11:36:41.638Z,50.25
2018-02-19T11:39:09.177Z,39.75
2018-02-19T11:41:36.693Z,56.10
2018-02-19T11:44:04.401Z,45.78
2018-02-19T11:46:31.920Z,40.28
2018-02-19T11:48:59.439Z,42.08
2018-02-19T11:51:27.006Z,42.08
2018-02-19T11:53:54.522Z,43.63
2018-02-19T11:56:22.205Z,40.38
2018-02-19T11:58:51.151Z,45.10
2018-02-19T12:01:18.641Z,48.53
2018-02-19T12:03:46.284Z,64.50
2018-02-19T12:06:13.835Z,45.22
2018-02-19T12:08:41.760Z,44.58
2018-02-19T12:11:09.944Z,50.53
2018-02-19T12:13:37.825Z,41.85
2018-02-19T12:16:06.936Z,44.47
2018-02-19T12:18:35.556Z,40.33
2018-02-19T12:21:03.389Z,38.33
2018-02-19T12:23:31.077Z,44.92
2018-02-19T12:25:58.986Z,38.35
2018-02-19T12:28:26.841Z,51.35
2018-02-19T12:30:54.712Z,35.58
2018-02-19T12:33:22.425Z,40.58
2018-02-19T12:35:51.056Z,40.38
2018-02-19T12:38:18.784Z,41.90
2018-02-19T12:40:46.687Z,33.97
2018-02-19T12:43:14.808Z,40.70
2018-02-19T12:45:43.033Z,34.75
2018-02-19T12:48:10.590Z,38.70
2018-02-19T12:50:38.443Z,42.30
2018-02-19T12:53:06.225Z,38.55
2018-02-19T12:55:34.738Z,39.33
2018-02-19T12:58:02.673Z,37.60
2018-02-19T13:00:30.536Z,36.35
2018-02-19T13:02:58.376Z,44.45
2018-02-19T13:05:26.291Z,37.90
2018-02-19T13:07:54.242Z,50.88
2018-02-19T13:10:22.008Z,44.05
2018-02-19T13:12:49.769Z,37.28
2018-02-19T13:15:17.636Z,44.45
2018-02-19T13:17:45.401Z,47.55
2018-02-19T13:20:13.680Z,41.42
2018-02-19T13:22:41.853Z,36.25
2018-02-19T13:25:09.821Z,36.65
2018-02-19T13:27:37.686Z,53.03
2018-02-19T13:30:05.660Z,37.42
2018-02-19T13:32:33.628Z,43.17
2018-02-19T13:35:02.515Z,38.92
2018-02-19T13:37:30.360Z,36.60
2018-02-19T13:39:58.247Z,33.83
2018-02-19T13:42:25.912Z,40.60
2018-02-19T13:44:53.776Z,34.50
2018-02-19T13:47:22.770Z,39.28
2018-02-19T13:49:50.636Z,42.33
2018-02-19T13:52:18.502Z,53.78
2018-02-19T13:54:46.367Z,45.92
2018-02-19T13:57:14.643Z,44.60
2018-02-19T13:59:42.616Z,40.83
2018-02-19T14:02:11.198Z,48.95
2018-02-19T14:04:39.063Z,39.95
2018-02-19T14:07:06.835Z,41.25
2018-02-19T14:09:35.390Z,38.25
2018-02-19T14:12:03.069Z,39.38
2018-02-19T14:14:30.938Z,43.75
2018-02-19T14:16:58.725Z,48.40
2018-02-19T14:19:26.672Z,53.00
2018-02-19T14:21:54.640Z,51.15
2018-02-19T14:24:24.355Z,48.35
2018-02-19T14:26:52.321Z,54.60
2018-02-19T14:29:19.925Z,39.53
2018-02-19T14:31:47.847Z,52.85
2018-02-19T14:34:15.707Z,52.42
2018-02-19T14:36:43.887Z,51.30
2018-02-19T14:39:11.754Z,49.35
2018-02-19T14:41:39.518Z,49.55
2018-02-19T14:44:07.161Z,52.17
2018-02-19T14:46:34.842Z,58.47
2018-02-19T14:49:02.793Z,45.28
2018-02-19T14:51:30.723Z,41.72
2018-02-19T14:53:59.363Z,49.10
2018-02-19T14:56:27.255Z,53.83
2018-02-19T14:58:54.883Z,53.53
2018-02-19T15:01:22.760Z,46.37
2018-02-19T15:03:50.378Z,50.97
2018-02-19T15:06:18.258Z,39.70
2018-02-19T15:08:45.957Z,51.72
2018-02-19T15:11:13.720Z,44.08
2018-02-19T15:13:41.681Z,51.80
2018-02-19T15:16:09.547Z,63.53
2018-02-19T15:18:37.618Z,56.42
2018-02-19T15:21:05.690Z,57.17
2018-02-19T15:23:33.864Z,59.60
2018-02-19T15:26:02.140Z,65.00
2018-02-19T15:28:30.724Z,59.60
2018-02-19T15:30:58.548Z,62.17
2018-02-19T15:33:27.582Z,47.53
2018-02-19T15:35:55.653Z,40.95
2018-02-19T15:38:23.623Z,48.50
2018-02-19T15:40:52.946Z,46.25
2018-02-19T15:43:20.890Z,59.45
2018-02-19T15:45:48.859Z,60.58
2018-02-19T15:48:16.624Z,50.17
2018-02-19T15:50:48.586Z,58.05
2018-02-19T15:53:16.453Z,55.90
2018-02-19T15:55:44.422Z,58.10
2018-02-19T15:58:12.455Z,56.65
2018-02-19T16:00:40.363Z,50.00
2018-02-19T16:03:08.289Z,61.08
2018-02-19T16:05:36.196Z,66.97
2018-02-19T16:08:04.784Z,68.43
2018-02-19T16:10:32.645Z,55.72
2018-02-19T16:13:01.032Z,54.85
2018-02-19T16:15:28.788Z,62.40
2018-02-19T16:17:56.713Z,51.97
2018-02-19T16:20:25.031Z,56.22
2018-02-19T16:22:52.796Z,48.30
2018-02-19T16:25:20.635Z,59.90
2018-02-19T16:27:49.653Z,55.15
2018-02-19T16:30:17.832Z,64.60
2018-02-19T16:32:45.798Z,59.47
2018-02-19T16:35:13.850Z,55.42
2018-02-19T16:37:42.352Z,58.47
2018-02-19T16:40:10.320Z,57.47
2018-02-19T16:42:38.185Z,66.35
2018-02-19T16:45:06.154Z,55.30
2018-02-19T16:47:34.022Z,59.97
2018-02-19T16:50:03.221Z,49.10
2018-02-19T16:52:31.187Z,51.03
2018-02-19T16:55:00.527Z,57.33
2018-02-19T16:57:28.763Z,52.03
2018-02-19T16:59:56.619Z,59.45
2018-02-19T17:02:25.524Z,68.47
2018-02-19T17:04:53.449Z,60.45
2018-02-19T17:07:21.355Z,70.68
2018-02-19T17:09:49.328Z,72.78
2018-02-19T17:12:17.152Z,77.57
2018-02-19T17:14:45.017Z,96.05
2018-02-19T17:17:12.986Z,83.40
2018-02-19T17:19:40.893Z,89.90
2018-02-19T17:22:08.866Z,76.10
2018-02-19T17:24:36.600Z,81.47
2018-02-19T17:27:04.380Z,84.70
2018-02-19T17:29:32.257Z,60.92
2018-02-19T17:32:00.031Z,63.20
2018-02-19T17:34:27.989Z,54.90
2018-02-19T17:36:55.865Z,65.45
2018-02-19T17:39:23.840Z,60.12
2018-02-19T17:41:51.901Z,65.40
2018-02-19T17:44:19.763Z,65.37
2018-02-19T17:46:48.410Z,63.70
2018-02-19T17:49:16.314Z,60.70
2018-02-19T17:51:44.387Z,67.97
2018-02-19T17:54:12.356Z,65.12
2018-02-19T17:56:40.200Z,57.85
2018-02-19T17:59:08.199Z,61.05
2018-02-19T18:01:36.536Z,60.28
2018-02-19T18:04:04.438Z,63.17
2018-02-19T18:06:32.469Z,54.05
2018-02-19T18:09:00.271Z,51.58
2018-02-19T18:11:28.240Z,60.50
2018-02-19T18:13:56.106Z,55.95
2018-02-19T18:16:23.937Z,56.00
2018-02-19T18:18:51.803Z,57.88
2018-02-19T18:21:19.809Z,64.90
2018-02-19T18:23:47.989Z,54.25
2018-02-19T18:26:16.668Z,60.05
2018-02-19T18:28:45.192Z,64.03
2018-02-19T18:31:13.122Z,57.17
2018-02-19T18:33:41.190Z,57.67
2018-02-19T18:36:09.507Z,66.00
2018-02-19T18:38:37.536Z,52.13
2018-02-19T18:41:05.813Z,60.72
2018-02-19T18:43:33.782Z,55.30
2018-02-19T18:46:01.649Z,57.38
2018-02-19T18:48:29.514Z,54.28
2018-02-19T18:50:57.708Z,62.38
2018-02-19T18:53:26.034Z,61.97
2018-02-19T18:55:53.933Z,54.72
2018-02-19T18:58:21.903Z,76.68
2018-02-19T19:00:49.769Z,51.17
2018-02-19T19:03:17.700Z,59.13
2018-02-19T19:05:46.629Z,51.28
2018-02-19T19:08:26.389Z,59.60
2018-02-19T19:10:56.099Z,51.63
2018-02-19T19:13:25.847Z,57.25
2018-02-19T19:15:55.248Z,64.20
2018-02-19T19:18:23.165Z,55.53
2018-02-19T19:20:50.931Z,54.75
2018-02-19T19:23:20.740Z,62.28
2018-02-19T19:25:48.812Z,54.30
2018-02-19T19:28:17.295Z,67.82
2018-02-19T19:30:45.265Z,58.58
2018-02-19T19:33:13.251Z,55.92
2018-02-19T19:35:41.587Z,55.60
2018-02-19T19:38:09.480Z,55.85
2018-02-19T19:40:37.421Z,67.32
2018-02-19T19:43:05.312Z,59.47
2018-02-19T19:45:33.131Z,58.80
2018-02-19T19:48:01.148Z,58.53
2018-02-19T19:50:31.061Z,61.13
2018-02-19T19:52:59.405Z,61.58
2018-02-19T19:55:28.024Z,65.70
2018-02-19T19:57:56.020Z,65.82
2018-02-19T20:00:23.982Z,57.13
2018-02-19T20:02:52.954Z,53.65
2018-02-19T20:05:21.026Z,60.80
2018-02-19T20:07:49.300Z,59.72
2018-02-19T20:10:17.785Z,52.70
2018-02-19T20:12:45.750Z,55.75
2018-02-19T20:15:13.821Z,52.47
2018-02-19T20:17:42.097Z,67.50
2018-02-19T20:20:11.286Z,66.12
2018-02-19T20:22:39.370Z,61.22
2018-02-19T20:25:08.220Z,64.80
2018-02-19T20:27:36.132Z,65.45
2018-02-19T20:30:04.094Z,51.67
2018-02-19T20:32:32.881Z,58.92
2018-02-19T20:35:00.748Z,64.87
2018-02-19T20:37:30.134Z,67.82
2018-02-19T20:39:59.042Z,69.45
2018-02-19T20:42:27.217Z,56.13
2018-02-19T20:44:55.086Z,54.53
2018-02-19T20:47:23.154Z,51.17
2018-02-19T20:49:51.223Z,57.97
2018-02-19T20:52:19.090Z,63.55
2018-02-19T20:54:47.264Z,65.20
2018-02-19T20:57:15.208Z,66.82
2018-02-19T20:59:43.100Z,88.25
2018-02-19T21:02:11.069Z,58.58
2018-02-19T21:04:39.041Z,60.17
2018-02-19T21:07:07.340Z,61.37
2018-02-19T21:09:35.165Z,58.58
2018-02-19T21:12:03.013Z,60.60
2018-02-19T21:14:30.916Z,63.95
2018-02-19T21:16:58.845Z,59.03
2018-02-19T21:19:27.055Z,60.97
2018-02-19T21:21:54.923Z,59.33
2018-02-19T21:24:23.266Z,56.53
2018-02-19T21:26:51.268Z,57.53
2018-02-19T21:29:19.343Z,69.47
2018-02-19T21:31:47.527Z,98.20
2018-02-19T21:34:15.382Z,111.62
2018-02-19T21:36:43.453Z,155.93
2018-02-19T21:39:12.242Z,122.03
2018-02-19T21:41:40.108Z,110.57
2018-02-19T21:44:08.281Z,81.00
2018-02-19T21:46:36.119Z,95.60
2018-02-19T21:49:04.014Z,84.60
2018-02-19T21:51:32.494Z,78.97
2018-02-19T21:54:00.364Z,75.30
2018-02-19T21:56:28.408Z,77.00
2018-02-19T21:58:56.508Z,76.75
2018-02-19T22:01:24.441Z,70.28
2018-02-19T22:03:52.639Z,64.35
2018-02-19T22:06:20.616Z,59.55
2018-02-19T22:08:51.028Z,80.75
2018-02-19T22:11:20.141Z,65.40
2018-02-19T22:13:48.374Z,63.38
2018-02-19T22:16:17.918Z,64.62
2018-02-19T22:18:46.194Z,59.25
2018-02-19T22:21:15.289Z,65.22
2018-02-19T22:23:43.771Z,66.57
2018-02-19T22:26:11.739Z,61.25
2018-02-19T22:28:40.554Z,71.00
2018-02-19T22:31:08.410Z,77.70
2018-02-19T22:33:36.432Z,65.47
2018-02-19T22:36:04.229Z,65.30
2018-02-19T22:38:32.608Z,82.37
2018-02-19T22:41:00.578Z,57.30
2018-02-19T22:43:28.955Z,72.28
2018-02-19T22:45:57.154Z,79.82
2018-02-19T22:48:24.996Z,64.87
2018-02-19T22:50:52.863Z,64.15
2018-02-19T22:53:20.624Z,65.28
2018-02-19T22:55:48.183Z,68.25
2018-02-19T22:58:16.328Z,81.87
2018-02-19T23:00:44.430Z,70.60
2018-02-19T23:03:12.091Z,63.47
2018-02-19T23:05:39.830Z,72.07
2018-02-19T23:08:07.621Z,68.95
2018-02-19T23:10:35.705Z,61.83
2018-02-19T23:13:03.558Z,69.93
2018-02-19T23:15:31.311Z,69.35
2018-02-19T23:17:59.404Z,75.30
2018-02-19T23:20:27.059Z,65.15
2018-02-19T23:22:55.290Z,63.45
2018-02-19T23:25:23.097Z,76.68
2018-02-19T23:27:50.850Z,71.15
2018-02-19T23:30:18.724Z,67.90
2018-02-19T23:32:46.353Z,62.00
2018-02-19T23:35:14.049Z,78.18
2018-02-19T23:37:41.801Z,80.30
2018-02-19T23:40:09.374Z,61.13
2018-02-19T23:42:37.019Z,63.17
2018-02-19T23:45:04.794Z,64.50
2018-02-19T23:47:32.552Z,67.72
2018-02-19T23:50:00.188Z,70.57
2018-02-19T23:52:27.810Z,59.83
2018-02-19T23:54:55.398Z,77.62
2018-02-19T23:57:23.064Z,60.08
2018-02-19T23:59:50.762Z,65.82
